Погода Пран-Бурина 2 недели

Бангкок, Таиланд

27 февраля-11 марта
  • 27февраля
    Сегодня
    +23°
    +37°
    Практически безоблачно
    ВремяПогодаТемператураВлажностьДавлениеВетер, м/сВероятность осадков
    01:00Ясно и безоблачно+26°C88 %759 мм1.8 м/с2 %
    04:00Небольшая облачность+25°C92 %758 мм1.8 м/с2 %
    07:00Облачно с прояснениями+24°C92 %759 мм1.8 м/с2 %
    10:00Ясно и безоблачно+34°C49 %760 мм1.9 м/с2 %
    13:00Практически безоблачно+36°C43 %759 мм4.7 м/с6 %
    16:00Ясно и безоблачно+35°C50 %757 мм3.7 м/с16 %
    19:00Ясно и безоблачно+30°C68 %758 мм3.2 м/с5 %
    22:00Ясно и безоблачно+28°C77 %759 мм2.9 м/с2 %
  • 28февраля
    Среда
    +24°
    +36°
    Небольшая облачность и лёгкий дождик
    ВремяПогодаТемператураВлажностьДавлениеВетер, м/сВероятность осадков
    01:00Ясно и безоблачно+26°C82 %758 мм1.8 м/с2 %
    04:00Небольшая облачность+25°C81 %757 мм1.4 м/с4 %
    07:00Небольшая облачность+24°C82 %758 мм1.7 м/с32 %
    10:00Практически безоблачно+33°C58 %759 мм3.0 м/с40 %
    13:00Небольшая облачность и лёгкий дождик+36°C53 %758 мм4.1 м/с60 %
    16:00Практически безоблачно+34°C57 %756 мм4.0 м/с48 %
    19:00Ясно и безоблачно+30°C69 %757 мм3.4 м/с19 %
    22:00Ясно и безоблачно+28°C80 %758 мм2.9 м/с5 %
  • 29февраля
    Четверг
    +24°
    +37°
    Практически безоблачно
    ВремяПогодаТемператураВлажностьДавлениеВетер, м/сВероятность осадков
    01:00Ясно и безоблачно+26°C83 %758 мм2.3 м/с6 %
    04:00Ясно и безоблачно+25°C86 %757 мм2.2 м/с21 %
    07:00Ясно и безоблачно+25°C87 %758 мм2.3 м/с13 %
    10:00Практически безоблачно+34°C50 %759 мм1.6 м/с6 %
    13:00Практически безоблачно+36°C50 %758 мм4.3 м/с30 %
    16:00Ясно и безоблачно+35°C55 %756 мм5.1 м/с32 %
    19:00Ясно и безоблачно+30°C73 %757 мм4.2 м/с16 %
    22:00Ясно и безоблачно+28°C79 %759 мм3.1 м/с2 %
  • 01марта
    Пятница
    +24°
    +39°
    Небольшая облачность
    ВремяПогодаТемператураВлажностьДавлениеВетер, м/сВероятность осадков
    01:00Ясно и безоблачно+26°C82 %759 мм2.5 м/с2 %
    04:00Практически безоблачно+26°C80 %758 мм2.1 м/с2 %
    07:00Облачно с прояснениями+24°C84 %759 мм2.1 м/с2 %
    10:00Небольшая облачность+34°C40 %760 мм1.5 м/с2 %
    13:00Небольшая облачность+39°C35 %758 мм4.2 м/с15 %
    16:00Практически безоблачно+36°C47 %756 мм4.7 м/с22 %
    19:00Ясно и безоблачно+30°C69 %757 мм4.1 м/с9 %
    22:00Практически безоблачно+28°C78 %759 мм3.3 м/с2 %
  • 02марта
    Суббота
    +24°
    +39°
    Облачно с прояснениями
    ВремяПогодаТемператураВлажностьДавлениеВетер, м/сВероятность осадков
    01:00Практически безоблачно+27°C83 %758 мм2.9 м/с2 %
    04:00Ясно и безоблачно+26°C85 %757 мм1.8 м/с2 %
    07:00Ясно и безоблачно+25°C86 %758 мм2.1 м/с2 %
    10:00Ясно и безоблачно+35°C48 %759 мм1.1 м/с5 %
    13:00Облачно с прояснениями+38°C40 %757 мм4.1 м/с39 %
    16:00Облачно с прояснениями, небольшой дождь+35°C53 %756 мм5.0 м/с54 %
    19:00Ясно и безоблачно+31°C70 %757 мм3.4 м/с28 %
    22:00Ясно и безоблачно+28°C79 %759 мм2.6 м/с7 %
Мы используем cookies
Соглашаюсь